Pray, Montana
Current Conditions -  °F | °C
As of 7:53 AM on Tuesday 21 Oct 2014 (Local Time) from KLVM Reporting Station
Few Clouds Few Clouds  
Wind Chill: 62°   Ceiling: Unl
Heat Index: 62°   Visibility: 10mi
Dew Point: 36°   Wind: 25mph
Humidity: 38%   Direction: 230°SW
Pressure: 29.77"   Gusts: 31mph
Location:  45.38°N, 110.68°W
Report Text: KLVM 211353Z AUTO 23022G27KT 10SM FEW085 17/02 A2977 RMK AO2 PK WND 22031/1335 SLP039 T01670022
Loading
Personal Weather Stations






























Interactive Weather Map
Tropical Storm Tracking
New forecast layout! Learn more

10-Day Weather Forecast

Advertisements
Track Severe Weather on mobile